Argenta, Texas
Current Conditions -  °F | °C
As of 3:55 PM on Friday 28 Nov 2014 (Local Time) from KRBO Reporting Station
Clear Clear  
Wind Chill: 76°   Ceiling: Unl
Heat Index: 76°   Visibility: 10mi
Dew Point: 53°   Wind: 14mph
Humidity: 45%   Direction: 150°SSE
Pressure: 30.15"   Gusts: NA
Location:  28.0654°N, 97.7489°W
Report Text: KRBO 282155Z AUTO 15012KT 10SM CLR 24/12 A3015 RMK AO2 T02430118
Loading
Personal Weather Stations






























Interactive Weather Map New forecast layout! Learn more

10-Day Weather Forecast

Advertisements
Track Severe Weather on mobile